Terminal Aerodrome Forecast
Issued by NWS

Home | Current Version | Previous Version | Text Only | Print | Product List | Glossary On
Versions: 1 2 3 4 5 6 7 8 9 10 11 12 13 14 15 16
685
FTUS42 KTBW 220539
TAFPIE
TAF
KPIE 220539Z 2206/2306 13007KT P6SM SCT030 OVC100
     FM220900 13009KT P6SM SHRA SCT025 OVC100
     FM221200 14009KT 4SM TSRA SCT015CB BKN020 OVC050
     FM222100 10007KT 5SM SHRA VCTS FEW015CB SCT020 OVC050
     FM230300 04005KT P6SM VCSH FEW010 BKN020 BKN050=

USA.gov is the U.S. government's official web portal to all federal, state and local government web resources and services.